Time;durP1;ratioP1;P1;durP2;ratioP2;P2;SDS_P1;SDS_P2;PMS_P1;PMS_P2;Temp;Humidity;BMP_temperature;BMP_pressure;BME280_temperature;BME280_humidity;BME280_pressure;Samples;Min_cycle;Max_cycle;Signal;HPM_P1;HPM_P2
2022/06/29 00:02:24;;;;;;;1.93;1.40;;;;;;;;;;4966145;28;20200;-62
2022/06/29 00:04:53;;;;;;;2.97;1.77;;;;;;;;;;4965330;28;20197;-62
2022/06/29 00:07:26;;;;;;;2.37;1.90;;;;;;;;;;4963794;28;20252;-61
2022/06/29 00:10:07;;;;;;;3.67;2.00;;;;;;;;;;4963427;28;20618;-62
2022/06/29 00:12:39;;;;;;;2.33;1.53;;;;;;;;;;4963043;28;20271;-62
2022/06/29 00:15:09;;;;;;;3.50;1.63;;;;;;;;;;4942229;28;20236;-62
2022/06/29 00:17:42;;;;;;;2.27;1.60;;;;;;;;;;4949732;28;20185;-62
2022/06/29 00:20:13;;;;;;;2.80;1.70;;;;;;;;;;4934036;28;20201;-62
2022/06/29 00:22:44;;;;;;;4.50;1.60;;;;;;;;;;4959193;28;20209;-62
2022/06/29 00:25:18;;;;;;;2.73;1.97;;;;;;;;;;4947769;28;20263;-62
2022/06/29 00:27:50;;;;;;;2.37;1.70;;;;;;;;;;4965558;28;20204;-62
2022/06/29 00:30:23;;;;;;;3.00;1.80;;;;;;;;;;4965779;28;20208;-62
2022/06/29 00:33:02;;;;;;;4.00;2.03;;;;;;;;;;4961305;28;20217;-62
2022/06/29 00:35:34;;;;;;;2.03;1.80;;;;;;;;;;4949294;28;20268;-62
2022/06/29 00:38:05;;;;;;;2.30;1.50;;;;;;;;;;4965029;28;20216;-61
2022/06/29 00:40:35;;;;;;;1.87;1.70;;;;;;;;;;4962075;28;20692;-62
2022/06/29 00:43:06;;;;;;;2.30;1.83;;;;;;;;;;4965507;28;20201;-62
2022/06/29 00:45:37;;;;;;;3.30;1.60;;;;;;;;;;4962464;28;20862;-62
2022/06/29 00:48:08;;;;;;;4.10;2.00;;;;;;;;;;4949889;28;20614;-62
2022/06/29 00:50:41;;;;;;;2.00;1.80;;;;;;;;;;4945140;28;20212;-61
2022/06/29 00:53:16;;;;;;;2.17;1.63;;;;;;;;;;4965040;28;20487;-62
2022/06/29 00:55:47;;;;;;;2.03;1.80;;;;;;;;;;4960950;28;20233;-61
2022/06/29 00:58:19;;;;;;;3.47;1.90;;;;;;;;;;4960838;28;20217;-61
2022/06/29 01:00:49;;;;;;;1.87;1.67;;;;;;;;;;4964839;28;20319;-61
2022/06/29 01:03:20;;;;;;;2.10;1.80;;;;;;;;;;4963946;28;20204;-62
2022/06/29 01:05:53;;;;;;;2.80;1.50;;;;;;;;;;4962680;28;20197;-62
2022/06/29 01:08:24;;;;;;;3.00;1.87;;;;;;;;;;4962448;28;20747;-61
2022/06/29 01:10:56;;;;;;;2.93;1.73;;;;;;;;;;4958306;28;20227;-61
2022/06/29 01:13:32;;;;;;;4.10;1.90;;;;;;;;;;4963867;28;20614;-61
2022/06/29 01:16:03;;;;;;;2.67;1.60;;;;;;;;;;4947258;28;20225;-61
2022/06/29 01:18:34;;;;;;;3.57;1.47;;;;;;;;;;4961648;28;20212;-61
2022/06/29 01:21:06;;;;;;;2.87;1.63;;;;;;;;;;4961251;28;20241;-61
2022/06/29 01:23:38;;;;;;;2.73;2.00;;;;;;;;;;4948619;28;20201;-62
2022/06/29 01:26:15;;;;;;;2.10;1.80;;;;;;;;;;4926488;28;20224;-61
2022/06/29 01:28:51;;;;;;;6.13;1.73;;;;;;;;;;4958479;28;20636;-61
2022/06/29 01:31:33;;;;;;;2.87;1.80;;;;;;;;;;4965665;28;21667;-61
2022/06/29 01:34:04;;;;;;;2.60;1.67;;;;;;;;;;4960291;28;20291;-61
2022/06/29 01:36:36;;;;;;;2.47;1.83;;;;;;;;;;4962750;28;20225;-61
2022/06/29 01:39:07;;;;;;;1.70;1.60;;;;;;;;;;4962308;28;20221;-61
2022/06/29 01:41:43;;;;;;;2.30;1.80;;;;;;;;;;4964127;28;20200;-61
2022/06/29 01:44:13;;;;;;;2.43;1.70;;;;;;;;;;4949484;28;20209;-61
2022/06/29 01:46:43;;;;;;;2.90;1.70;;;;;;;;;;4940703;28;20218;-61
2022/06/29 01:49:10;;;;;;;1.87;1.73;;;;;;;;;;4948746;28;20716;-61
2022/06/29 01:51:41;;;;;;;2.77;1.60;;;;;;;;;;4949152;28;20208;-61
2022/06/29 01:54:12;;;;;;;3.37;1.90;;;;;;;;;;4962489;28;20224;-62
2022/06/29 01:56:41;;;;;;;2.17;1.50;;;;;;;;;;4958754;28;20213;-61
2022/06/29 01:59:12;;;;;;;2.07;1.70;;;;;;;;;;4964193;28;20209;-62
2022/06/29 02:01:45;;;;;;;2.90;1.60;;;;;;;;;;4951709;28;20303;-61
2022/06/29 02:04:16;;;;;;;2.87;1.83;;;;;;;;;;4949256;28;20205;-61
2022/06/29 02:06:48;;;;;;;2.53;1.97;;;;;;;;;;4961009;28;20254;-62
2022/06/29 02:09:21;;;;;;;2.07;1.60;;;;;;;;;;4927581;29;20229;-62
2022/06/29 02:11:54;;;;;;;2.23;1.60;;;;;;;;;;4947148;28;20213;-62
2022/06/29 02:14:30;;;;;;;3.03;1.83;;;;;;;;;;4945861;29;20256;-62
2022/06/29 02:17:02;;;;;;;2.73;1.50;;;;;;;;;;4946243;28;20231;-62
2022/06/29 02:19:33;;;;;;;4.90;1.90;;;;;;;;;;4947452;29;20228;-62
2022/06/29 02:22:09;;;;;;;4.03;2.10;;;;;;;;;;4927858;29;20224;-62
2022/06/29 02:24:46;;;;;;;2.73;1.73;;;;;;;;;;4945355;28;20194;-61
2022/06/29 02:27:13;;;;;;;2.90;1.70;;;;;;;;;;4947015;28;20264;-62
2022/06/29 02:29:46;;;;;;;3.07;1.90;;;;;;;;;;4949033;29;20201;-62
2022/06/29 02:35:08;;;;;;;2.13;1.93;;;;;;;;;;4948125;29;20206;-61
2022/06/29 02:37:42;;;;;;;3.10;1.50;;;;;;;;;;4947586;28;20198;-62
2022/06/29 02:40:14;;;;;;;2.33;1.80;;;;;;;;;;4948459;29;20194;-61
2022/06/29 02:42:46;;;;;;;2.20;1.60;;;;;;;;;;4944123;28;20220;-62
2022/06/29 02:45:34;;;;;;;2.03;1.80;;;;;;;;;;4943288;28;20847;-62
2022/06/29 02:48:05;;;;;;;4.77;1.80;;;;;;;;;;4948130;28;20244;-62
2022/06/29 02:50:38;;;;;;;2.50;1.90;;;;;;;;;;4946932;28;20533;-62
2022/06/29 02:53:11;;;;;;;4.23;2.00;;;;;;;;;;4946915;28;20229;-62
2022/06/29 02:55:43;;;;;;;3.93;1.70;;;;;;;;;;4948773;28;20296;-62
2022/06/29 02:58:17;;;;;;;1.80;1.50;;;;;;;;;;4945183;28;20653;-62
2022/06/29 03:00:48;;;;;;;2.87;1.53;;;;;;;;;;4944994;28;20270;-62
2022/06/29 03:03:16;;;;;;;3.23;1.73;;;;;;;;;;4947908;28;20218;-62
2022/06/29 03:05:45;;;;;;;2.77;1.63;;;;;;;;;;4947362;29;20221;-62
2022/06/29 03:08:16;;;;;;;3.70;1.87;;;;;;;;;;4957289;28;20233;-62
2022/06/29 03:10:49;;;;;;;2.53;2.00;;;;;;;;;;4961888;28;21174;-61
2022/06/29 03:13:32;;;;;;;3.17;1.63;;;;;;;;;;4952630;28;20228;-61
2022/06/29 03:16:05;;;;;;;2.13;1.70;;;;;;;;;;4967580;28;20270;-61
2022/06/29 03:18:43;;;;;;;2.57;1.90;;;;;;;;;;4965815;28;20199;-62
2022/06/29 03:21:11;;;;;;;2.27;1.90;;;;;;;;;;4961608;28;20633;-61
2022/06/29 03:23:44;;;;;;;2.43;1.97;;;;;;;;;;4934832;28;20224;-60
2022/06/29 03:26:18;;;;;;;2.13;1.83;;;;;;;;;;4950226;28;20196;-60
2022/06/29 03:28:55;;;;;;;2.80;1.77;;;;;;;;;;4966042;28;20621;-61
2022/06/29 03:31:26;;;;;;;2.60;1.97;;;;;;;;;;4965431;28;20636;-61
2022/06/29 03:33:59;;;;;;;2.37;1.80;;;;;;;;;;4963320;28;20525;-61
2022/06/29 03:36:41;;;;;;;2.90;2.00;;;;;;;;;;4963446;28;20328;-60
2022/06/29 03:39:11;;;;;;;2.57;2.00;;;;;;;;;;4947308;28;20197;-61
2022/06/29 03:41:43;;;;;;;2.33;1.70;;;;;;;;;;4964992;28;20204;-60
2022/06/29 03:44:14;;;;;;;2.67;1.80;;;;;;;;;;4967518;28;20221;-61
2022/06/29 03:46:44;;;;;;;2.17;1.97;;;;;;;;;;4959092;28;20213;-61
2022/06/29 03:49:17;;;;;;;2.17;1.90;;;;;;;;;;4967180;28;20197;-61
2022/06/29 03:51:48;;;;;;;2.30;2.00;;;;;;;;;;4967052;28;20201;-61
2022/06/29 03:54:24;;;;;;;1.90;1.60;;;;;;;;;;4949255;28;20724;-60
2022/06/29 03:56:56;;;;;;;2.47;1.80;;;;;;;;;;4958045;28;20245;-60
2022/06/29 03:59:30;;;;;;;2.07;1.87;;;;;;;;;;4968260;28;20276;-60
2022/06/29 04:02:00;;;;;;;2.13;1.87;;;;;;;;;;4966531;28;20200;-61
2022/06/29 04:04:30;;;;;;;4.30;1.67;;;;;;;;;;4963219;28;20208;-60
2022/06/29 04:06:59;;;;;;;2.97;1.87;;;;;;;;;;4966753;28;20193;-61
2022/06/29 04:09:28;;;;;;;3.23;1.90;;;;;;;;;;4962969;28;20209;-61
2022/06/29 04:12:03;;;;;;;2.30;1.70;;;;;;;;;;4965449;28;20645;-61
2022/06/29 04:14:34;;;;;;;3.70;1.70;;;;;;;;;;4963161;28;20201;-60
2022/06/29 04:17:07;;;;;;;3.27;1.93;;;;;;;;;;4965338;28;20319;-63
2022/06/29 04:19:37;;;;;;;1.97;1.70;;;;;;;;;;4965349;28;20205;-62
2022/06/29 04:22:09;;;;;;;3.37;1.93;;;;;;;;;;4962104;28;20232;-63
2022/06/29 04:24:40;;;;;;;1.90;1.70;;;;;;;;;;4962863;28;20209;-62
2022/06/29 04:27:13;;;;;;;2.53;1.90;;;;;;;;;;4966612;28;20224;-61
2022/06/29 04:29:43;;;;;;;2.50;1.83;;;;;;;;;;4969226;28;20213;-61
2022/06/29 04:32:14;;;;;;;2.10;1.77;;;;;;;;;;4967958;28;20633;-61
2022/06/29 04:34:47;;;;;;;3.93;1.90;;;;;;;;;;4958983;28;20224;-61
2022/06/29 04:37:17;;;;;;;2.40;2.20;;;;;;;;;;4965726;28;20217;-61
2022/06/29 04:39:49;;;;;;;4.07;1.87;;;;;;;;;;4964932;28;20201;-61
2022/06/29 04:42:18;;;;;;;3.70;2.00;;;;;;;;;;4965166;28;20280;-61
2022/06/29 04:44:53;;;;;;;2.83;1.90;;;;;;;;;;4945136;28;20216;-61
2022/06/29 04:47:26;;;;;;;3.83;2.20;;;;;;;;;;4966020;28;20209;-63
2022/06/29 04:49:57;;;;;;;2.83;1.67;;;;;;;;;;4965556;28;20641;-62
2022/06/29 04:52:28;;;;;;;7.03;2.17;;;;;;;;;;4965906;28;20271;-62
2022/06/29 04:54:57;;;;;;;4.70;2.37;;;;;;;;;;4965240;28;20204;-63
2022/06/29 04:57:25;;;;;;;3.43;2.07;;;;;;;;;;4961322;28;20248;-61
2022/06/29 04:59:54;;;;;;;4.23;2.20;;;;;;;;;;4966606;28;20215;-60
2022/06/29 05:02:25;;;;;;;3.63;2.17;;;;;;;;;;4964867;28;20208;-62
2022/06/29 05:04:56;;;;;;;2.87;2.10;;;;;;;;;;4965671;28;20944;-63
2022/06/29 05:07:42;;;;;;;2.60;2.20;;;;;;;;;;4965230;28;20326;-63
2022/06/29 05:10:15;;;;;;;3.40;2.27;;;;;;;;;;4956540;28;20217;-62
2022/06/29 05:12:57;;;;;;;4.03;2.50;;;;;;;;;;4962792;28;20653;-63
2022/06/29 05:15:28;;;;;;;4.40;2.23;;;;;;;;;;4964991;28;20521;-61
2022/06/29 05:17:57;;;;;;;6.10;2.60;;;;;;;;;;4965554;28;20231;-62
2022/06/29 05:20:26;;;;;;;3.57;2.33;;;;;;;;;;4966222;28;20525;-62
2022/06/29 05:22:56;;;;;;;2.77;2.13;;;;;;;;;;4965241;28;20287;-63
2022/06/29 05:25:27;;;;;;;11.53;2.90;;;;;;;;;;4965613;28;20224;-62
2022/06/29 05:27:59;;;;;;;4.10;2.33;;;;;;;;;;4964977;28;20666;-61
2022/06/29 05:30:29;;;;;;;5.00;2.63;;;;;;;;;;4963529;28;20193;-62
2022/06/29 05:32:57;;;;;;;6.23;2.80;;;;;;;;;;4958734;28;20220;-62
2022/06/29 05:35:29;;;;;;;6.10;3.00;;;;;;;;;;4969219;28;20201;-63
2022/06/29 05:38:09;;;;;;;3.43;2.50;;;;;;;;;;4951501;28;20657;-62
2022/06/29 05:40:42;;;;;;;4.70;2.50;;;;;;;;;;4967622;28;20201;-63
2022/06/29 05:43:14;;;;;;;4.53;2.90;;;;;;;;;;4952009;28;20203;-63
2022/06/29 05:45:45;;;;;;;4.83;3.00;;;;;;;;;;4964466;28;20256;-63
2022/06/29 05:48:16;;;;;;;5.13;2.40;;;;;;;;;;4966798;28;20205;-63
2022/06/29 05:50:44;;;;;;;5.27;2.90;;;;;;;;;;4965689;28;20614;-63
2022/06/29 05:53:22;;;;;;;5.00;3.07;;;;;;;;;;4968710;28;20211;-63
2022/06/29 05:55:54;;;;;;;4.07;2.83;;;;;;;;;;4968019;28;20234;-65
2022/06/29 05:58:25;;;;;;;4.90;3.20;;;;;;;;;;4965798;28;20224;-64
2022/06/29 06:00:53;;;;;;;3.90;3.53;;;;;;;;;;4968380;28;20220;-64
2022/06/29 06:03:25;;;;;;;4.70;3.60;;;;;;;;;;4963819;28;20205;-64
2022/06/29 06:05:57;;;;;;;12.87;3.97;;;;;;;;;;4968311;28;20201;-64
2022/06/29 06:08:27;;;;;;;5.00;3.70;;;;;;;;;;4965832;28;20320;-64
2022/06/29 06:10:57;;;;;;;5.60;3.90;;;;;;;;;;4960758;28;20205;-64
2022/06/29 06:13:28;;;;;;;5.80;4.10;;;;;;;;;;4966526;28;20224;-65
2022/06/29 06:16:00;;;;;;;9.43;3.90;;;;;;;;;;4967003;28;20193;-64
2022/06/29 06:18:56;;;;;;;5.97;4.87;;;;;;;;;;4967071;28;20208;-64
2022/06/29 06:21:26;;;;;;;5.77;4.03;;;;;;;;;;4945298;28;20209;-64
2022/06/29 06:23:56;;;;;;;5.30;4.47;;;;;;;;;;4948632;28;20259;-64
2022/06/29 06:26:28;;;;;;;12.17;6.50;;;;;;;;;;4964238;28;20713;-66
2022/06/29 06:28:58;;;;;;;27.13;10.70;;;;;;;;;;4961592;28;20204;-65
2022/06/29 06:31:28;;;;;;;34.73;14.73;;;;;;;;;;4967527;28;20276;-63
2022/06/29 06:34:01;;;;;;;51.33;18.57;;;;;;;;;;4962889;28;20213;-61
2022/06/29 06:36:33;;;;;;;43.23;16.60;;;;;;;;;;4965292;28;20242;-61
2022/06/29 06:39:04;;;;;;;32.90;14.27;;;;;;;;;;4967839;28;20201;-66
2022/06/29 06:41:42;;;;;;;29.20;13.67;;;;;;;;;;4969612;28;20523;-64
2022/06/29 06:44:11;;;;;;;29.77;12.90;;;;;;;;;;4968905;28;20203;-64
2022/06/29 06:46:41;;;;;;;25.47;11.70;;;;;;;;;;4960731;28;20240;-67
2022/06/29 06:49:11;;;;;;;25.03;11.83;;;;;;;;;;4969356;28;20504;-67
2022/06/29 06:51:43;;;;;;;25.23;10.97;;;;;;;;;;4969301;28;20276;-65
2022/06/29 06:54:18;;;;;;;20.53;10.03;;;;;;;;;;4968002;28;20259;-65
2022/06/29 06:56:50;;;;;;;23.27;9.00;;;;;;;;;;4942190;28;20291;-65
2022/06/29 06:59:21;;;;;;;17.50;8.77;;;;;;;;;;4967265;28;20201;-65
2022/06/29 07:01:58;;;;;;;18.17;8.33;;;;;;;;;;4969110;28;20708;-66
2022/06/29 07:04:28;;;;;;;16.17;8.67;;;;;;;;;;4965195;28;20585;-67
2022/06/29 07:07:01;;;;;;;17.17;7.70;;;;;;;;;;4969885;28;20205;-66
2022/06/29 07:09:35;;;;;;;17.90;7.57;;;;;;;;;;4967496;28;20232;-66
2022/06/29 07:12:07;;;;;;;15.73;7.53;;;;;;;;;;4968014;28;20212;-66
2022/06/29 07:14:50;;;;;;;16.80;7.40;;;;;;;;;;4962469;28;20300;-66
2022/06/29 07:17:21;;;;;;;17.20;6.87;;;;;;;;;;4965953;28;20738;-64
2022/06/29 07:19:52;;;;;;;12.43;5.90;;;;;;;;;;4965614;28;20292;-63
2022/06/29 07:22:26;;;;;;;14.10;6.00;;;;;;;;;;4960680;28;20220;-66
2022/06/29 07:24:57;;;;;;;9.33;5.70;;;;;;;;;;4967620;28;20239;-67
2022/06/29 07:27:26;;;;;;;11.77;5.97;;;;;;;;;;4967154;28;20201;-64
2022/06/29 07:29:58;;;;;;;12.17;5.93;;;;;;;;;;4966560;28;20213;-64
2022/06/29 07:32:27;;;;;;;10.23;5.57;;;;;;;;;;4957649;28;20890;-64
2022/06/29 07:34:58;;;;;;;8.77;5.57;;;;;;;;;;4963525;28;20193;-65
2022/06/29 07:37:28;;;;;;;8.17;4.70;;;;;;;;;;4961109;28;20325;-65
2022/06/29 07:40:06;;;;;;;8.23;5.20;;;;;;;;;;4948657;28;20208;-64
2022/06/29 07:42:46;;;;;;;8.57;4.40;;;;;;;;;;4962298;28;20192;-66
2022/06/29 07:45:17;;;;;;;7.73;4.40;;;;;;;;;;4961006;28;20782;-66
2022/06/29 07:47:52;;;;;;;5.90;4.30;;;;;;;;;;4948866;28;20200;-66
2022/06/29 07:50:23;;;;;;;8.00;4.23;;;;;;;;;;4966741;28;20201;-65
2022/06/29 07:52:55;;;;;;;7.33;4.20;;;;;;;;;;4964570;28;20273;-65
2022/06/29 07:55:27;;;;;;;8.57;4.00;;;;;;;;;;4962998;28;20287;-64
2022/06/29 07:58:08;;;;;;;5.47;3.63;;;;;;;;;;4957391;28;20247;-65
2022/06/29 08:00:38;;;;;;;5.93;3.37;;;;;;;;;;4961698;28;20225;-64
2022/06/29 08:03:10;;;;;;;5.87;3.60;;;;;;;;;;4949286;28;20221;-65
2022/06/29 08:05:45;;;;;;;5.23;3.53;;;;;;;;;;4927750;28;20299;-63
2022/06/29 08:08:24;;;;;;;4.90;3.13;;;;;;;;;;4935030;28;20258;-67
2022/06/29 08:10:56;;;;;;;8.83;3.30;;;;;;;;;;4964586;28;20569;-65
2022/06/29 08:13:38;;;;;;;4.90;3.37;;;;;;;;;;4949198;28;20228;-65
2022/06/29 08:16:11;;;;;;;6.07;3.50;;;;;;;;;;4951510;28;20645;-64
2022/06/29 08:18:41;;;;;;;5.33;3.40;;;;;;;;;;4949330;28;20235;-63
2022/06/29 08:21:11;;;;;;;4.60;3.60;;;;;;;;;;4964832;28;20235;-66
2022/06/29 08:23:41;;;;;;;6.17;3.60;;;;;;;;;;4967759;28;20205;-66
2022/06/29 08:26:12;;;;;;;5.87;3.30;;;;;;;;;;4947120;28;20561;-66
2022/06/29 08:29:03;;;;;;;6.00;3.70;;;;;;;;;;4947535;28;20220;-66
2022/06/29 08:31:37;;;;;;;4.77;3.47;;;;;;;;;;4964213;28;20210;-65
2022/06/29 08:34:10;;;;;;;5.80;3.17;;;;;;;;;;4961434;28;20310;-64
2022/06/29 08:36:41;;;;;;;3.97;3.13;;;;;;;;;;4961571;28;20219;-66
2022/06/29 08:39:17;;;;;;;4.23;3.30;;;;;;;;;;4962184;28;20287;-66
2022/06/29 08:41:46;;;;;;;4.77;2.90;;;;;;;;;;4947581;28;20202;-67
2022/06/29 08:44:29;;;;;;;4.03;2.80;;;;;;;;;;4962066;28;20181;-65
2022/06/29 08:47:13;;;;;;;4.60;2.70;;;;;;;;;;4963896;28;20240;-64
2022/06/29 08:49:45;;;;;;;3.53;3.10;;;;;;;;;;4965422;28;20555;-65
2022/06/29 08:52:13;;;;;;;3.77;3.00;;;;;;;;;;4966682;28;20750;-66
2022/06/29 08:54:48;;;;;;;2.87;2.53;;;;;;;;;;4946135;28;20763;-65
2022/06/29 08:57:21;;;;;;;4.10;2.80;;;;;;;;;;4960363;28;20272;-65
2022/06/29 09:00:01;;;;;;;3.83;3.00;;;;;;;;;;4965747;28;20501;-65
2022/06/29 09:02:33;;;;;;;4.03;2.50;;;;;;;;;;4946905;28;20599;-65
2022/06/29 09:05:07;;;;;;;5.03;2.80;;;;;;;;;;4965738;28;20254;-66
2022/06/29 09:07:41;;;;;;;3.27;2.33;;;;;;;;;;4964867;28;20594;-65
2022/06/29 09:10:23;;;;;;;3.13;2.60;;;;;;;;;;4962411;28;20680;-64
2022/06/29 09:12:58;;;;;;;4.93;2.37;;;;;;;;;;4963985;28;20540;-64
2022/06/29 09:15:33;;;;;;;3.37;2.53;;;;;;;;;;4935332;28;20205;-62
2022/06/29 09:18:07;;;;;;;3.80;2.67;;;;;;;;;;4964976;28;20686;-62
2022/06/29 09:20:44;;;;;;;4.37;2.30;;;;;;;;;;4960322;28;20555;-62
2022/06/29 09:23:14;;;;;;;3.20;2.23;;;;;;;;;;4963682;28;21913;-62
2022/06/29 09:25:44;;;;;;;3.23;2.13;;;;;;;;;;4964093;28;20213;-62
2022/06/29 09:28:20;;;;;;;3.90;2.17;;;;;;;;;;4964447;28;20587;-62
2022/06/29 09:30:56;;;;;;;2.73;2.30;;;;;;;;;;4963803;28;20259;-62
2022/06/29 09:33:25;;;;;;;2.47;2.10;;;;;;;;;;4959477;28;20476;-62
2022/06/29 09:36:14;;;;;;;4.67;2.53;;;;;;;;;;4965814;28;20202;-62
2022/06/29 09:38:42;;;;;;;3.60;2.30;;;;;;;;;;4929957;28;20258;-62
2022/06/29 09:41:22;;;;;;;2.23;2.03;;;;;;;;;;4965016;28;20204;-62
2022/06/29 09:43:56;;;;;;;2.53;2.33;;;;;;;;;;4958192;28;20205;-62
2022/06/29 09:46:31;;;;;;;3.47;2.27;;;;;;;;;;4953306;28;20239;-63
2022/06/29 09:49:00;;;;;;;2.77;2.20;;;;;;;;;;4964648;28;20563;-63
2022/06/29 09:51:33;;;;;;;4.83;2.30;;;;;;;;;;4964145;28;20773;-63
2022/06/29 09:54:10;;;;;;;2.47;2.17;;;;;;;;;;4953625;28;20227;-63
2022/06/29 09:56:50;;;;;;;3.93;2.30;;;;;;;;;;4954314;28;20215;-63
2022/06/29 10:02:51;;;;;;;2.73;2.23;;;;;;;;;;4948704;28;20216;-62
2022/06/29 10:05:22;;;;;;;2.90;2.30;;;;;;;;;;4964679;28;20208;-62
2022/06/29 10:07:56;;;;;;;3.43;2.60;;;;;;;;;;4951216;28;20248;-63
2022/06/29 10:10:27;;;;;;;4.57;2.10;;;;;;;;;;4945934;28;20232;-63
2022/06/29 10:16:43;;;;;;;2.63;2.03;;;;;;;;;;4965850;28;20212;-62
2022/06/29 10:19:20;;;;;;;2.20;2.00;;;;;;;;;;4889755;29;20223;-62
2022/06/29 10:22:05;;;;;;;2.73;1.87;;;;;;;;;;4884862;29;20246;-63
2022/06/29 10:24:37;;;;;;;4.27;1.90;;;;;;;;;;4946156;28;20217;-63
2022/06/29 10:27:08;;;;;;;2.47;2.10;;;;;;;;;;4969185;28;20228;-63
2022/06/29 10:29:40;;;;;;;2.20;2.00;;;;;;;;;;4968721;28;20201;-63
2022/06/29 10:32:16;;;;;;;2.73;2.00;;;;;;;;;;4967772;28;20248;-63
2022/06/29 10:37:57;;;;;;;2.20;2.00;;;;;;;;;;4967290;28;20287;-62
2022/06/29 10:40:30;;;;;;;2.83;1.80;;;;;;;;;;4967574;28;20588;-62
2022/06/29 10:43:22;;;;;;;2.50;1.60;;;;;;;;;;4967685;28;20207;-63
2022/06/29 10:45:57;;;;;;;2.00;1.80;;;;;;;;;;4945943;28;20264;-62
2022/06/29 10:48:30;;;;;;;2.27;2.07;;;;;;;;;;4948613;28;20279;-62
2022/06/29 10:50:59;;;;;;;2.83;2.10;;;;;;;;;;4965404;28;20713;-63
2022/06/29 10:53:31;;;;;;;2.47;1.80;;;;;;;;;;4964553;28;20596;-63
2022/06/29 10:56:02;;;;;;;4.10;2.37;;;;;;;;;;4965358;28;20197;-64
2022/06/29 10:58:34;;;;;;;4.40;2.47;;;;;;;;;;4960337;28;20287;-63
2022/06/29 11:01:06;;;;;;;5.77;2.27;;;;;;;;;;4966596;28;20580;-63
2022/06/29 11:03:38;;;;;;;3.67;2.53;;;;;;;;;;4950842;28;20189;-63
2022/06/29 11:12:04;;;;;;;2.43;1.93;;;;;;;;;;4949201;28;20221;-61
2022/06/29 11:17:47;;;;;;;4.63;1.90;;;;;;;;;;4965853;28;20204;-62
2022/06/29 11:20:20;;;;;;;3.87;2.07;;;;;;;;;;4957799;28;20640;-61
2022/06/29 11:22:52;;;;;;;2.40;1.60;;;;;;;;;;4956238;28;20388;-62
2022/06/29 11:25:25;;;;;;;2.20;1.40;;;;;;;;;;4963302;28;20362;-62
2022/06/29 11:27:57;;;;;;;2.83;1.63;;;;;;;;;;4963080;28;20217;-62
2022/06/29 11:30:29;;;;;;;3.40;2.10;;;;;;;;;;4977330;28;20533;-62
2022/06/29 11:33:06;;;;;;;1.93;1.53;;;;;;;;;;4960734;28;20303;-62
2022/06/29 11:35:36;;;;;;;2.53;1.97;;;;;;;;;;4964356;28;20204;-62
2022/06/29 11:38:07;;;;;;;2.43;1.60;;;;;;;;;;4960606;28;20229;-62
2022/06/29 11:40:49;;;;;;;2.67;1.70;;;;;;;;;;4964283;28;20200;-62
2022/06/29 11:43:59;;;;;;;1.57;1.43;;;;;;;;;;4964862;28;20212;-62
2022/06/29 11:46:28;;;;;;;2.60;1.70;;;;;;;;;;4961446;28;20357;-63
2022/06/29 11:51:52;;;;;;;1.57;1.37;;;;;;;;;;4965498;28;20220;-62
2022/06/29 11:54:41;;;;;;;2.50;1.50;;;;;;;;;;4963694;28;20588;-62
2022/06/29 11:57:15;;;;;;;2.43;1.37;;;;;;;;;;4960943;28;20661;-62
2022/06/29 11:59:48;;;;;;;1.60;1.30;;;;;;;;;;4962585;28;20231;-62
2022/06/29 12:02:32;;;;;;;2.33;1.43;;;;;;;;;;4943299;28;20366;-62
2022/06/29 12:05:04;;;;;;;1.50;1.40;;;;;;;;;;4968271;28;20207;-62
2022/06/29 12:07:35;;;;;;;1.77;1.40;;;;;;;;;;4962260;28;20200;-61
2022/06/29 12:10:03;;;;;;;1.53;1.43;;;;;;;;;;4962465;28;20331;-62
2022/06/29 12:12:36;;;;;;;1.90;1.50;;;;;;;;;;4964466;28;20224;-62
2022/06/29 12:15:08;;;;;;;1.90;1.17;;;;;;;;;;4932585;28;20205;-61
2022/06/29 12:17:39;;;;;;;2.50;1.27;;;;;;;;;;4951251;28;20215;-62
2022/06/29 12:20:15;;;;;;;1.47;1.23;;;;;;;;;;4965545;28;20224;-62
2022/06/29 12:23:05;;;;;;;1.70;1.20;;;;;;;;;;4964148;28;20201;-63
2022/06/29 12:25:37;;;;;;;1.83;1.47;;;;;;;;;;4965433;28;20205;-62
2022/06/29 12:28:09;;;;;;;1.53;1.23;;;;;;;;;;4958963;28;20284;-62
2022/06/29 12:30:38;;;;;;;1.77;1.37;;;;;;;;;;4963990;28;20674;-63
2022/06/29 12:33:11;;;;;;;1.87;1.40;;;;;;;;;;4942558;28;20237;-62
2022/06/29 12:35:41;;;;;;;1.57;1.33;;;;;;;;;;4963975;28;20314;-62
2022/06/29 12:38:12;;;;;;;1.27;1.07;;;;;;;;;;4964634;28;21087;-62
2022/06/29 12:40:43;;;;;;;2.70;1.13;;;;;;;;;;4931190;28;20233;-62
2022/06/29 12:43:16;;;;;;;2.23;1.40;;;;;;;;;;4950417;28;20197;-62
2022/06/29 12:45:46;;;;;;;1.77;1.00;;;;;;;;;;4960641;28;20208;-62
2022/06/29 12:48:19;;;;;;;1.47;1.27;;;;;;;;;;4960706;28;20473;-62
2022/06/29 12:50:50;;;;;;;1.90;1.23;;;;;;;;;;4960499;28;20834;-63
2022/06/29 12:53:22;;;;;;;1.97;1.10;;;;;;;;;;4948269;28;20716;-63
2022/06/29 12:55:54;;;;;;;1.90;1.10;;;;;;;;;;4965328;28;20641;-62
2022/06/29 12:58:29;;;;;;;1.53;1.10;;;;;;;;;;4959702;28;20665;-62
2022/06/29 13:00:59;;;;;;;1.23;1.00;;;;;;;;;;4963910;28;20228;-62
2022/06/29 13:03:41;;;;;;;1.20;1.10;;;;;;;;;;4965266;28;20198;-71
2022/06/29 13:06:11;;;;;;;1.93;1.30;;;;;;;;;;4933131;28;20200;-62
2022/06/29 13:08:42;;;;;;;1.90;1.30;;;;;;;;;;4955575;28;20233;-63
2022/06/29 13:11:13;;;;;;;1.80;1.23;;;;;;;;;;4965936;28;20225;-63
2022/06/29 13:13:43;;;;;;;1.83;1.20;;;;;;;;;;4966003;28;20681;-63
2022/06/29 13:16:12;;;;;;;1.37;1.10;;;;;;;;;;4950205;28;20664;-63
2022/06/29 13:18:43;;;;;;;1.43;1.33;;;;;;;;;;4961321;28;20227;-64
2022/06/29 13:21:12;;;;;;;1.63;1.13;;;;;;;;;;4957638;28;20223;-65
2022/06/29 13:23:41;;;;;;;1.20;1.10;;;;;;;;;;4948409;28;20208;-65
2022/06/29 13:26:11;;;;;;;1.47;1.37;;;;;;;;;;4963632;28;20536;-65
2022/06/29 13:28:43;;;;;;;1.10;1.00;;;;;;;;;;4963821;28;20642;-65
2022/06/29 13:31:13;;;;;;;1.50;1.40;;;;;;;;;;4961949;28;20201;-63
2022/06/29 13:33:45;;;;;;;2.00;1.43;;;;;;;;;;4945811;28;20516;-62
2022/06/29 13:36:14;;;;;;;2.40;1.30;;;;;;;;;;4961152;28;20239;-65
2022/06/29 13:38:43;;;;;;;1.10;1.10;;;;;;;;;;4943497;28;20225;-65
2022/06/29 13:41:10;;;;;;;2.33;1.30;;;;;;;;;;4948440;28;20193;-63
2022/06/29 13:43:40;;;;;;;2.17;1.57;;;;;;;;;;4965306;28;20208;-63
2022/06/29 13:46:11;;;;;;;1.20;1.00;;;;;;;;;;4962236;28;20209;-63
2022/06/29 13:48:42;;;;;;;1.57;1.40;;;;;;;;;;4962551;28;20201;-62
2022/06/29 13:51:11;;;;;;;2.23;1.40;;;;;;;;;;4965223;28;20205;-62
2022/06/29 13:53:47;;;;;;;1.70;1.57;;;;;;;;;;4966327;28;20259;-63
2022/06/29 13:56:17;;;;;;;1.47;1.10;;;;;;;;;;4952780;28;20656;-65
2022/06/29 13:58:47;;;;;;;2.40;1.50;;;;;;;;;;4957780;28;20244;-66
2022/06/29 14:01:17;;;;;;;3.07;1.10;;;;;;;;;;4966201;28;20205;-65
2022/06/29 14:03:50;;;;;;;1.23;1.10;;;;;;;;;;4950310;28;20587;-65
2022/06/29 14:06:23;;;;;;;1.70;1.30;;;;;;;;;;4969216;28;20213;-63
2022/06/29 14:08:55;;;;;;;2.80;1.00;;;;;;;;;;4976611;28;20332;-63
2022/06/29 14:11:33;;;;;;;1.60;1.20;;;;;;;;;;4980599;28;20193;-64
2022/06/29 14:14:09;;;;;;;3.97;1.53;;;;;;;;;;4935398;28;20697;-64
2022/06/29 14:16:42;;;;;;;1.60;1.27;;;;;;;;;;4950717;28;20216;-63
2022/06/29 14:19:13;;;;;;;1.67;1.20;;;;;;;;;;4952744;28;20228;-66
2022/06/29 14:21:42;;;;;;;1.40;1.30;;;;;;;;;;4963511;28;20213;-66
2022/06/29 14:24:17;;;;;;;2.17;1.33;;;;;;;;;;4950829;28;20205;-64
2022/06/29 14:26:48;;;;;;;1.53;1.43;;;;;;;;;;4964191;28;20229;-66
2022/06/29 14:29:24;;;;;;;1.47;1.37;;;;;;;;;;4962407;28;20280;-65
2022/06/29 14:31:54;;;;;;;1.20;1.03;;;;;;;;;;4966615;28;20205;-67
2022/06/29 14:34:48;;;;;;;2.03;1.30;;;;;;;;;;4959145;28;20221;-66
2022/06/29 14:37:19;;;;;;;1.50;1.20;;;;;;;;;;4966625;28;20197;-68
2022/06/29 14:39:46;;;;;;;2.50;1.17;;;;;;;;;;4951895;28;20228;-68
2022/06/29 14:42:21;;;;;;;3.83;1.20;;;;;;;;;;4980070;28;20429;-69
2022/06/29 14:44:56;;;;;;;1.33;1.20;;;;;;;;;;4959634;28;20220;-69
2022/06/29 14:47:27;;;;;;;2.77;1.30;;;;;;;;;;4966370;28;20263;-65
2022/06/29 14:50:03;;;;;;;1.23;1.13;;;;;;;;;;4967194;28;20675;-65
2022/06/29 14:52:36;;;;;;;3.53;1.20;;;;;;;;;;4947550;28;20626;-66
2022/06/29 14:55:08;;;;;;;2.63;1.30;;;;;;;;;;4944722;28;20283;-68
2022/06/29 14:57:40;;;;;;;1.43;1.10;;;;;;;;;;4957013;28;20209;-68
2022/06/29 15:00:12;;;;;;;3.30;1.40;;;;;;;;;;4949758;28;20683;-67
2022/06/29 15:02:45;;;;;;;1.33;1.23;;;;;;;;;;4947859;28;20288;-65
2022/06/29 15:05:16;;;;;;;2.03;1.30;;;;;;;;;;4967016;28;20643;-64
2022/06/29 15:07:52;;;;;;;1.60;1.40;;;;;;;;;;4949917;28;20335;-64
2022/06/29 15:10:23;;;;;;;1.83;1.27;;;;;;;;;;4947529;28;20237;-66
2022/06/29 15:12:57;;;;;;;1.40;1.30;;;;;;;;;;4963968;28;20201;-67
2022/06/29 15:15:29;;;;;;;1.30;1.20;;;;;;;;;;4966049;28;20193;-67
2022/06/29 15:17:59;;;;;;;1.40;1.30;;;;;;;;;;4965172;28;20222;-68
2022/06/29 15:20:38;;;;;;;3.67;1.57;;;;;;;;;;4929727;28;20869;-67
2022/06/29 15:23:13;;;;;;;1.97;1.50;;;;;;;;;;4965773;28;20208;-65
2022/06/29 15:25:46;;;;;;;1.77;1.17;;;;;;;;;;4965944;28;20212;-63
2022/06/29 15:28:19;;;;;;;2.90;1.40;;;;;;;;;;4960278;28;20205;-63
2022/06/29 15:31:05;;;;;;;1.40;1.27;;;;;;;;;;4965528;28;20220;-64
2022/06/29 15:39:31;;;;;;;1.57;1.17;;;;;;;;;;4966909;28;20211;-65
2022/06/29 15:42:01;;;;;;;1.30;1.10;;;;;;;;;;4943690;28;20815;-63
2022/06/29 15:44:36;;;;;;;2.47;1.17;;;;;;;;;;4957573;28;20209;-63
2022/06/29 15:47:06;;;;;;;2.83;1.27;;;;;;;;;;4981538;28;20260;-64